Abegondo, Spain
Current Conditions -  °F | °C
As of 8:00 PM on Tuesday 27 Jan 2015 (Local Time) from LECO Reporting Station
Broken Clouds Broken Clouds  
Wind Chill: 11°   Ceiling: 3800
Heat Index: 11°   Visibility: 6mi
Dew Point:   Wind: 8mph
Humidity: 82%   Direction: 10°N
Pressure: 30.5"   Gusts: NA
Location:  43.22°N, 8.28°W
Report Text: LECO 271900Z 01007KT 9999 BKN038 11/08 Q1033 NOSIG
Loading
Personal Weather Stations






























Interactive Weather Map New forecast layout! Learn more

10-Day Weather Forecast

Advertisements
Track Severe Weather on mobile